Time;durP1;ratioP1;P1;durP2;ratioP2;P2;SDS_P1;SDS_P2;PMS_P1;PMS_P2;Temp;Humidity;BMP_temperature;BMP_pressure;BME280_temperature;BME280_humidity;BME280_pressure;Samples;Min_cycle;Max_cycle;Signal;HPM_P1;HPM_P2
2022/01/12 00:00:51;;;;;;;7.85;6.03;;;;;;;;;;5032220;28;20196;-75
2022/01/12 00:03:18;;;;;;;8.30;6.03;;;;;;;;;;5019532;28;20208;-76
2022/01/12 00:05:46;;;;;;;7.80;6.20;;;;;;;;;;5030764;28;20210;-75
2022/01/12 00:08:13;;;;;;;5.38;4.88;;;;;;;;;;5028815;28;20199;-75
2022/01/12 00:10:40;;;;;;;5.65;4.50;;;;;;;;;;5027090;28;20189;-75
2022/01/12 00:13:07;;;;;;;11.27;5.07;;;;;;;;;;5032546;28;20716;-74
2022/01/12 00:15:36;;;;;;;6.05;5.45;;;;;;;;;;5030234;28;20219;-75
2022/01/12 00:18:03;;;;;;;7.00;5.30;;;;;;;;;;5032441;28;20971;-75
2022/01/12 00:20:30;;;;;;;6.55;5.18;;;;;;;;;;5026447;28;20202;-75
2022/01/12 00:22:57;;;;;;;6.10;5.45;;;;;;;;;;5029873;28;20191;-75
2022/01/12 00:25:31;;;;;;;5.72;4.50;;;;;;;;;;5028377;28;20289;-75
2022/01/12 00:33:29;;;;;;;6.28;5.03;;;;;;;;;;5027460;28;20334;-74
2022/01/12 00:35:58;;;;;;;7.97;4.88;;;;;;;;;;5029195;28;20196;-75
2022/01/12 00:38:26;;;;;;;5.32;4.82;;;;;;;;;;5024177;28;20325;-75
2022/01/12 00:40:53;;;;;;;6.03;4.20;;;;;;;;;;5020602;28;20230;-75
2022/01/12 00:43:21;;;;;;;9.27;5.13;;;;;;;;;;5032441;28;20203;-75
2022/01/12 00:45:50;;;;;;;6.47;5.32;;;;;;;;;;5030393;28;20602;-74
2022/01/12 00:48:18;;;;;;;7.47;4.30;;;;;;;;;;5031312;28;20191;-75
2022/01/12 00:50:46;;;;;;;4.25;3.85;;;;;;;;;;5022860;28;20215;-76
2022/01/12 00:53:13;;;;;;;5.07;4.38;;;;;;;;;;5026867;28;20204;-75
2022/01/12 00:55:40;;;;;;;6.20;4.05;;;;;;;;;;5025099;28;20234;-76
2022/01/12 00:58:08;;;;;;;7.07;5.28;;;;;;;;;;5032272;28;20191;-75
2022/01/12 01:00:35;;;;;;;6.57;4.05;;;;;;;;;;5030689;28;20204;-77
2022/01/12 01:03:04;;;;;;;5.55;3.90;;;;;;;;;;5022346;28;20210;-77
2022/01/12 01:05:32;;;;;;;4.80;4.22;;;;;;;;;;5029221;28;20757;-76
2022/01/12 01:07:59;;;;;;;7.63;5.20;;;;;;;;;;5031149;28;20368;-76
2022/01/12 01:10:30;;;;;;;4.60;4.20;;;;;;;;;;5028925;28;20218;-77
2022/01/12 01:12:57;;;;;;;4.80;4.00;;;;;;;;;;5031108;28;20196;-76
2022/01/12 01:15:40;;;;;;;7.50;6.45;;;;;;;;;;5031480;28;20552;-76
2022/01/12 01:26:22;;;;;;;6.38;4.13;;;;;;;;;;5031077;28;20198;-76
2022/01/12 01:28:49;;;;;;;9.88;4.13;;;;;;;;;;5029660;28;20199;-75
2022/01/12 01:31:16;;;;;;;6.20;4.63;;;;;;;;;;5028020;28;20195;-75
2022/01/12 01:33:45;;;;;;;8.23;4.38;;;;;;;;;;5025502;28;20200;-75
2022/01/12 01:36:13;;;;;;;4.75;4.32;;;;;;;;;;5028532;28;20642;-77
2022/01/12 01:38:40;;;;;;;4.22;3.70;;;;;;;;;;5025007;28;20192;-78
2022/01/12 01:41:07;;;;;;;6.38;4.20;;;;;;;;;;5029043;28;20202;-76
2022/01/12 01:43:53;;;;;;;6.03;3.88;;;;;;;;;;5029343;28;20659;-78
2022/01/12 01:54:36;;;;;;;4.72;4.07;;;;;;;;;;5026713;28;20356;-75
2022/01/12 01:57:03;;;;;;;5.95;3.88;;;;;;;;;;5024408;28;20215;-75
2022/01/12 01:59:30;;;;;;;5.72;4.13;;;;;;;;;;5026529;28;20200;-75
2022/01/12 02:01:57;;;;;;;5.00;4.13;;;;;;;;;;5030532;28;20191;-76
2022/01/12 02:04:26;;;;;;;4.00;3.53;;;;;;;;;;5024786;28;20199;-75
2022/01/12 02:06:54;;;;;;;5.07;4.30;;;;;;;;;;5027426;28;20290;-76
2022/01/12 02:09:21;;;;;;;6.43;4.60;;;;;;;;;;5021393;28;20200;-76
2022/01/12 02:11:51;;;;;;;5.88;3.65;;;;;;;;;;5030502;28;20199;-76
2022/01/12 02:14:19;;;;;;;6.00;4.50;;;;;;;;;;5027208;28;20273;-76
2022/01/12 02:16:53;;;;;;;4.95;4.55;;;;;;;;;;5026406;28;20207;-76
2022/01/12 02:19:44;;;;;;;4.63;3.47;;;;;;;;;;5028473;28;20203;-75
2022/01/12 02:36:08;;;;;;;5.35;3.47;;;;;;;;;;5009569;28;20724;-76
2022/01/12 02:41:22;;;;;;;6.85;3.80;;;;;;;;;;5022757;28;20211;-76
2022/01/12 02:54:53;;;;;;;5.30;3.63;;;;;;;;;;5022094;28;20309;-76
2022/01/12 02:57:21;;;;;;;4.68;3.10;;;;;;;;;;5025964;28;20246;-76
2022/01/12 03:00:02;;;;;;;5.78;4.13;;;;;;;;;;5028375;28;20196;-76
2022/01/12 03:02:32;;;;;;;4.25;3.47;;;;;;;;;;5026405;28;20287;-76
2022/01/12 03:05:18;;;;;;;5.53;3.83;;;;;;;;;;5029957;28;20203;-76
2022/01/12 03:07:45;;;;;;;4.97;3.50;;;;;;;;;;5026859;28;20302;-76
2022/01/12 03:10:14;;;;;;;3.58;3.28;;;;;;;;;;5023331;28;20197;-77
2022/01/12 03:12:42;;;;;;;3.88;3.10;;;;;;;;;;5026739;28;20191;-76
2022/01/12 03:15:09;;;;;;;5.95;3.50;;;;;;;;;;5027103;28;20685;-77
2022/01/12 03:17:37;;;;;;;3.70;3.40;;;;;;;;;;5029008;28;20207;-77
2022/01/12 03:20:04;;;;;;;4.30;3.13;;;;;;;;;;5027054;28;20210;-76
2022/01/12 03:22:31;;;;;;;4.13;3.40;;;;;;;;;;5026986;28;20227;-76
2022/01/12 03:24:58;;;;;;;3.63;3.17;;;;;;;;;;5020335;28;20211;-76
2022/01/12 03:27:28;;;;;;;7.47;4.20;;;;;;;;;;5030722;28;20207;-76
2022/01/12 03:29:56;;;;;;;4.55;3.00;;;;;;;;;;5029245;28;20195;-75
2022/01/12 03:32:31;;;;;;;3.67;3.38;;;;;;;;;;5031794;28;20203;-75
2022/01/12 03:35:08;;;;;;;3.33;3.03;;;;;;;;;;5027333;28;20310;-76
2022/01/12 03:37:53;;;;;;;4.40;3.15;;;;;;;;;;5032444;28;20191;-75
2022/01/12 03:40:20;;;;;;;3.15;2.35;;;;;;;;;;5030545;28;20203;-75
2022/01/12 03:42:49;;;;;;;3.35;2.90;;;;;;;;;;5031998;28;20195;-75
2022/01/12 03:45:16;;;;;;;5.65;3.40;;;;;;;;;;5030571;28;20297;-76
2022/01/12 03:47:43;;;;;;;3.63;2.90;;;;;;;;;;5021585;28;20203;-75
2022/01/12 03:50:10;;;;;;;4.18;3.55;;;;;;;;;;5025196;28;20211;-76
2022/01/12 03:52:37;;;;;;;5.97;3.38;;;;;;;;;;5033494;28;20196;-75
2022/01/12 03:55:04;;;;;;;4.13;3.70;;;;;;;;;;5021740;28;20220;-76
2022/01/12 03:57:31;;;;;;;3.72;3.38;;;;;;;;;;5030862;28;20199;-76
2022/01/12 04:00:00;;;;;;;3.50;3.15;;;;;;;;;;5027090;28;20199;-76
2022/01/12 04:02:27;;;;;;;4.93;2.92;;;;;;;;;;5030334;28;20200;-76
2022/01/12 04:05:09;;;;;;;3.03;2.75;;;;;;;;;;5023674;28;20713;-77
2022/01/12 04:10:21;;;;;;;2.95;2.45;;;;;;;;;;5030298;28;20257;-76
2022/01/12 04:12:49;;;;;;;4.85;3.45;;;;;;;;;;5028615;28;20192;-76
2022/01/12 04:15:17;;;;;;;4.45;2.60;;;;;;;;;;5027851;28;20219;-76
2022/01/12 04:17:44;;;;;;;2.90;2.70;;;;;;;;;;5025550;28;20215;-76
2022/01/12 04:20:12;;;;;;;3.90;3.10;;;;;;;;;;5028924;28;20227;-78
2022/01/12 04:25:25;;;;;;;4.20;3.70;;;;;;;;;;5021081;28;20315;-76
2022/01/12 04:27:52;;;;;;;3.63;2.80;;;;;;;;;;5021836;28;20191;-76
2022/01/12 04:30:20;;;;;;;3.58;2.47;;;;;;;;;;5027464;28;20195;-77
2022/01/12 04:32:48;;;;;;;3.47;2.50;;;;;;;;;;5030586;28;20447;-76
2022/01/12 04:35:16;;;;;;;3.47;2.85;;;;;;;;;;5026450;28;20219;-75
2022/01/12 04:37:44;;;;;;;3.33;2.63;;;;;;;;;;5028595;28;20654;-76
2022/01/12 04:40:11;;;;;;;3.65;2.65;;;;;;;;;;5028695;28;20192;-76
2022/01/12 04:42:38;;;;;;;3.10;2.80;;;;;;;;;;5031533;28;20198;-76
2022/01/12 04:45:17;;;;;;;3.88;2.88;;;;;;;;;;5030359;28;20215;-76
2022/01/12 04:47:59;;;;;;;3.30;2.78;;;;;;;;;;5027472;28;20286;-76
2022/01/12 04:50:27;;;;;;;3.00;2.75;;;;;;;;;;5029014;28;20227;-77
2022/01/12 04:52:55;;;;;;;3.47;3.17;;;;;;;;;;5032383;28;20211;-76
2022/01/12 04:55:22;;;;;;;4.82;3.33;;;;;;;;;;5027327;28;20710;-76
2022/01/12 04:57:49;;;;;;;2.78;2.58;;;;;;;;;;5032210;28;20202;-75
2022/01/12 05:00:18;;;;;;;4.60;2.85;;;;;;;;;;5029282;28;20301;-76
2022/01/12 05:08:20;;;;;;;3.72;2.55;;;;;;;;;;5028985;28;20219;-76
2022/01/12 05:13:29;;;;;;;3.03;2.70;;;;;;;;;;4993638;28;20203;-76
2022/01/12 05:15:58;;;;;;;3.42;3.10;;;;;;;;;;5022355;28;20231;-74
2022/01/12 05:18:26;;;;;;;4.35;2.88;;;;;;;;;;5025153;28;20562;-74
2022/01/12 05:20:53;;;;;;;2.90;2.63;;;;;;;;;;5030711;28;20230;-74
2022/01/12 05:23:20;;;;;;;3.15;2.85;;;;;;;;;;5028606;28;20191;-75
2022/01/12 05:25:47;;;;;;;2.88;2.50;;;;;;;;;;5029711;28;20192;-75
2022/01/12 05:28:15;;;;;;;3.35;2.47;;;;;;;;;;5029297;28;20215;-76
2022/01/12 05:30:42;;;;;;;3.17;2.58;;;;;;;;;;5026935;28;20195;-74
2022/01/12 05:33:10;;;;;;;3.83;2.97;;;;;;;;;;5027424;28;20198;-75
2022/01/12 05:35:38;;;;;;;4.15;2.95;;;;;;;;;;5029982;28;20223;-75
2022/01/12 05:38:08;;;;;;;4.18;3.33;;;;;;;;;;5023093;28;20203;-76
2022/01/12 05:40:35;;;;;;;2.50;2.15;;;;;;;;;;5019541;28;20200;-75
2022/01/12 05:43:02;;;;;;;3.40;3.08;;;;;;;;;;5031052;28;20187;-75
2022/01/12 05:45:32;;;;;;;3.03;2.78;;;;;;;;;;5031274;28;20207;-75
2022/01/12 05:50:46;;;;;;;2.50;2.30;;;;;;;;;;5028061;28;20245;-76
2022/01/12 05:53:14;;;;;;;3.63;3.25;;;;;;;;;;5029733;28;20203;-76
2022/01/12 05:55:41;;;;;;;3.63;2.85;;;;;;;;;;5025122;28;20216;-76
2022/01/12 05:58:08;;;;;;;3.70;2.40;;;;;;;;;;5029395;28;20194;-76
2022/01/12 06:00:36;;;;;;;6.55;3.03;;;;;;;;;;5028212;28;20211;-76
2022/01/12 06:03:03;;;;;;;2.78;2.45;;;;;;;;;;5023354;28;20199;-76
2022/01/12 06:05:30;;;;;;;2.67;2.40;;;;;;;;;;5029750;28;20199;-75
2022/01/12 06:07:58;;;;;;;3.10;2.70;;;;;;;;;;5027950;28;20278;-74
2022/01/12 06:10:25;;;;;;;3.42;2.58;;;;;;;;;;5014501;28;20682;-74
2022/01/12 06:12:53;;;;;;;2.22;2.03;;;;;;;;;;5019189;28;20192;-76
2022/01/12 06:15:20;;;;;;;3.30;3.00;;;;;;;;;;5028342;28;20215;-76
2022/01/12 06:17:48;;;;;;;3.17;2.88;;;;;;;;;;5026842;28;20230;-76
2022/01/12 06:20:15;;;;;;;3.15;2.60;;;;;;;;;;5020116;28;20266;-75
2022/01/12 06:22:42;;;;;;;4.53;2.97;;;;;;;;;;5021281;28;20206;-76
2022/01/12 06:25:15;;;;;;;5.13;3.13;;;;;;;;;;5027225;28;20207;-76
2022/01/12 06:27:50;;;;;;;3.13;2.60;;;;;;;;;;5031315;28;20253;-76
2022/01/12 06:32:59;;;;;;;3.03;2.70;;;;;;;;;;5025873;28;20300;-76
2022/01/12 06:35:26;;;;;;;5.72;2.92;;;;;;;;;;5029137;28;20215;-76
2022/01/12 06:37:54;;;;;;;3.53;2.72;;;;;;;;;;5029468;28;20195;-75
2022/01/12 06:40:22;;;;;;;3.53;2.92;;;;;;;;;;5025437;28;20198;-76
2022/01/12 06:42:50;;;;;;;4.00;2.60;;;;;;;;;;5025606;28;20202;-76
2022/01/12 06:45:17;;;;;;;3.58;2.30;;;;;;;;;;5027668;28;20562;-77
2022/01/12 06:47:44;;;;;;;3.88;3.22;;;;;;;;;;5028457;28;20188;-77
2022/01/12 06:50:11;;;;;;;3.75;2.65;;;;;;;;;;5026561;28;20211;-77
2022/01/12 06:52:38;;;;;;;2.67;2.47;;;;;;;;;;5027724;28;20670;-77
2022/01/12 06:55:05;;;;;;;2.95;2.55;;;;;;;;;;5022989;28;20191;-77
2022/01/12 06:57:34;;;;;;;3.97;3.20;;;;;;;;;;5026958;28;20220;-77
2022/01/12 07:00:01;;;;;;;3.75;3.15;;;;;;;;;;5027594;28;20677;-77
2022/01/12 07:02:28;;;;;;;2.83;2.42;;;;;;;;;;5028990;28;20562;-77
2022/01/12 07:04:55;;;;;;;2.85;2.65;;;;;;;;;;5030554;28;20226;-76
2022/01/12 07:07:24;;;;;;;3.42;2.47;;;;;;;;;;5028425;28;20199;-76
2022/01/12 07:09:51;;;;;;;2.85;2.58;;;;;;;;;;5026210;28;20196;-77
2022/01/12 07:12:18;;;;;;;4.30;2.88;;;;;;;;;;5030205;28;20206;-75
2022/01/12 07:14:46;;;;;;;2.95;2.75;;;;;;;;;;5029186;28;20531;-76
2022/01/12 07:17:13;;;;;;;3.33;2.50;;;;;;;;;;5028001;28;20583;-75
2022/01/12 07:19:41;;;;;;;5.97;3.10;;;;;;;;;;5030009;28;20191;-76
2022/01/12 07:22:08;;;;;;;3.75;2.15;;;;;;;;;;5033760;28;20221;-76
2022/01/12 07:24:35;;;;;;;3.90;3.08;;;;;;;;;;5031440;28;20207;-75
2022/01/12 07:27:02;;;;;;;4.05;3.38;;;;;;;;;;5029574;28;20207;-76
2022/01/12 07:29:30;;;;;;;3.55;2.80;;;;;;;;;;5031257;28;20199;-76
2022/01/12 07:31:58;;;;;;;3.80;2.90;;;;;;;;;;5028592;28;20199;-76
2022/01/12 07:34:25;;;;;;;4.22;3.05;;;;;;;;;;5029370;28;20218;-76
2022/01/12 07:36:52;;;;;;;3.78;3.15;;;;;;;;;;5030593;28;20212;-76
2022/01/12 07:39:19;;;;;;;3.53;3.22;;;;;;;;;;5024976;28;20202;-76
2022/01/12 07:41:46;;;;;;;4.50;3.10;;;;;;;;;;5033476;28;20211;-76
2022/01/12 07:44:13;;;;;;;5.18;3.67;;;;;;;;;;5030238;28;20207;-76
2022/01/12 07:46:40;;;;;;;4.65;2.80;;;;;;;;;;5029182;28;20202;-76
2022/01/12 07:49:09;;;;;;;3.60;3.20;;;;;;;;;;5025978;28;20196;-77
2022/01/12 07:51:36;;;;;;;7.25;2.95;;;;;;;;;;5030499;28;20219;-76
2022/01/12 07:54:03;;;;;;;4.22;3.05;;;;;;;;;;5032583;28;20208;-76
2022/01/12 07:56:30;;;;;;;2.72;2.30;;;;;;;;;;5033226;28;20226;-75
2022/01/12 07:58:57;;;;;;;3.28;2.97;;;;;;;;;;5029720;28;20203;-75
2022/01/12 08:01:24;;;;;;;5.45;3.42;;;;;;;;;;5031819;28;20206;-75
2022/01/12 08:03:51;;;;;;;3.65;3.33;;;;;;;;;;5029921;28;20634;-73
2022/01/12 08:06:20;;;;;;;3.80;3.30;;;;;;;;;;5031231;28;20223;-74
2022/01/12 08:08:47;;;;;;;5.80;3.47;;;;;;;;;;5027824;28;20678;-73
2022/01/12 08:11:14;;;;;;;6.53;3.63;;;;;;;;;;5029002;28;20196;-73
2022/01/12 08:13:42;;;;;;;6.80;3.55;;;;;;;;;;5025226;28;20199;-74
2022/01/12 08:16:09;;;;;;;3.67;2.90;;;;;;;;;;5025292;28;20609;-73
2022/01/12 08:18:37;;;;;;;5.63;3.70;;;;;;;;;;5028709;28;20199;-73
2022/01/12 08:21:06;;;;;;;5.43;3.15;;;;;;;;;;5023265;28;20871;-74
2022/01/12 08:23:34;;;;;;;6.35;3.60;;;;;;;;;;5036324;28;20632;-74
2022/01/12 08:26:01;;;;;;;4.97;4.30;;;;;;;;;;5023832;28;20203;-74
2022/01/12 08:28:28;;;;;;;4.55;3.50;;;;;;;;;;5027774;28;20282;-76
2022/01/12 08:30:56;;;;;;;4.28;3.35;;;;;;;;;;5026416;28;20199;-76
2022/01/12 08:33:23;;;;;;;7.32;3.85;;;;;;;;;;5022643;28;20211;-74
2022/01/12 08:35:50;;;;;;;5.53;4.38;;;;;;;;;;5032297;28;20550;-76
2022/01/12 08:38:17;;;;;;;5.82;4.65;;;;;;;;;;5025865;28;20203;-76
2022/01/12 08:40:45;;;;;;;7.65;5.18;;;;;;;;;;5020173;28;20200;-76
2022/01/12 08:43:13;;;;;;;6.60;4.53;;;;;;;;;;5032739;28;20187;-75
2022/01/12 08:45:41;;;;;;;11.55;5.82;;;;;;;;;;5027204;28;20230;-75
2022/01/12 08:48:08;;;;;;;4.88;4.22;;;;;;;;;;5030894;28;20204;-78
2022/01/12 08:50:35;;;;;;;9.40;5.40;;;;;;;;;;5030449;28;20198;-75
2022/01/12 08:53:02;;;;;;;8.32;4.85;;;;;;;;;;5032707;28;20558;-79
2022/01/12 08:55:29;;;;;;;12.52;5.60;;;;;;;;;;5022771;28;20195;-78
2022/01/12 08:57:58;;;;;;;6.50;5.15;;;;;;;;;;5022603;28;20223;-78
2022/01/12 09:00:26;;;;;;;10.20;4.47;;;;;;;;;;5031389;28;20202;-76
2022/01/12 09:02:53;;;;;;;12.15;6.03;;;;;;;;;;5025144;28;20196;-79
2022/01/12 09:05:20;;;;;;;11.00;5.50;;;;;;;;;;5028633;28;20195;-77
2022/01/12 09:07:47;;;;;;;9.65;4.78;;;;;;;;;;5023063;28;20679;-79
2022/01/12 09:10:15;;;;;;;7.63;4.90;;;;;;;;;;5028382;28;20201;-79
2022/01/12 09:12:42;;;;;;;10.57;5.25;;;;;;;;;;5031944;28;20196;-79
2022/01/12 09:15:11;;;;;;;8.45;5.47;;;;;;;;;;5030015;28;20195;-79
2022/01/12 09:17:38;;;;;;;9.50;5.85;;;;;;;;;;5022924;28;20224;-78
2022/01/12 09:20:07;;;;;;;10.88;5.90;;;;;;;;;;5024840;28;20539;-77
2022/01/12 09:22:34;;;;;;;10.00;5.63;;;;;;;;;;5032224;28;20681;-77
2022/01/12 09:25:02;;;;;;;11.32;6.20;;;;;;;;;;5026302;28;20204;-75
2022/01/12 09:27:29;;;;;;;10.70;6.40;;;;;;;;;;5028120;28;20202;-76
2022/01/12 09:29:56;;;;;;;11.43;6.10;;;;;;;;;;5031596;28;20203;-76
2022/01/12 09:32:24;;;;;;;9.48;5.45;;;;;;;;;;5021254;28;20206;-77
2022/01/12 09:34:51;;;;;;;10.90;5.45;;;;;;;;;;5027674;28;20647;-77
2022/01/12 09:37:20;;;;;;;14.30;8.68;;;;;;;;;;5027750;28;20234;-77
2022/01/12 09:39:47;;;;;;;8.65;5.60;;;;;;;;;;5029035;28;20196;-77
2022/01/12 09:42:14;;;;;;;9.63;5.90;;;;;;;;;;5030487;28;20547;-77
2022/01/12 09:44:44;;;;;;;5.85;4.63;;;;;;;;;;5031525;28;20303;-77
2022/01/12 09:47:11;;;;;;;14.73;7.10;;;;;;;;;;5027679;28;20306;-77
2022/01/12 09:49:40;;;;;;;8.23;6.53;;;;;;;;;;5030392;28;20195;-77
2022/01/12 09:52:08;;;;;;;9.30;4.88;;;;;;;;;;5031466;28;20204;-76
2022/01/12 09:54:36;;;;;;;11.35;6.55;;;;;;;;;;5019316;28;20200;-76
2022/01/12 09:57:04;;;;;;;9.95;5.68;;;;;;;;;;5028300;28;20290;-76
2022/01/12 09:59:31;;;;;;;10.00;6.50;;;;;;;;;;5030520;28;20192;-77
2022/01/12 10:01:59;;;;;;;14.20;7.25;;;;;;;;;;5031102;28;20617;-76
2022/01/12 10:04:27;;;;;;;11.48;7.78;;;;;;;;;;5018857;28;20196;-75
2022/01/12 10:06:58;;;;;;;10.73;6.65;;;;;;;;;;5023780;28;20219;-76
2022/01/12 10:09:26;;;;;;;15.95;7.25;;;;;;;;;;5020968;28;20630;-75
2022/01/12 10:11:54;;;;;;;10.38;5.80;;;;;;;;;;5023049;28;20562;-75
2022/01/12 10:14:22;;;;;;;16.90;7.20;;;;;;;;;;5026750;28;20697;-75
2022/01/12 10:16:53;;;;;;;11.40;6.10;;;;;;;;;;5023591;28;20207;-75
2022/01/12 10:19:27;;;;;;;12.27;6.82;;;;;;;;;;5024201;28;20545;-75
2022/01/12 10:21:56;;;;;;;11.70;7.72;;;;;;;;;;5028434;28;20219;-75
2022/01/12 10:24:24;;;;;;;17.50;7.05;;;;;;;;;;5015310;28;20199;-75
2022/01/12 10:26:51;;;;;;;12.18;6.53;;;;;;;;;;5026124;28;20196;-75
2022/01/12 10:29:19;;;;;;;11.35;6.40;;;;;;;;;;5017834;28;20232;-75
2022/01/12 10:31:47;;;;;;;13.38;6.88;;;;;;;;;;5022142;28;20199;-75
2022/01/12 10:34:15;;;;;;;12.70;7.32;;;;;;;;;;5025692;28;20549;-75
2022/01/12 10:36:43;;;;;;;10.15;6.13;;;;;;;;;;5028239;28;20211;-77
2022/01/12 10:39:12;;;;;;;15.15;7.00;;;;;;;;;;5026327;28;20198;-77
2022/01/12 10:41:43;;;;;;;9.88;7.00;;;;;;;;;;5035152;28;20203;-74
2022/01/12 10:44:19;;;;;;;19.10;8.10;;;;;;;;;;5027836;28;20207;-75
2022/01/12 10:46:46;;;;;;;14.60;8.82;;;;;;;;;;5034011;28;20199;-75
2022/01/12 10:49:19;;;;;;;16.95;9.30;;;;;;;;;;5028477;28;20566;-76
2022/01/12 10:51:54;;;;;;;15.68;8.32;;;;;;;;;;5033993;28;20196;-75
2022/01/12 10:54:23;;;;;;;11.35;5.60;;;;;;;;;;5028667;28;20203;-75
2022/01/12 10:56:50;;;;;;;18.83;9.00;;;;;;;;;;5021165;28;20220;-75
2022/01/12 10:59:18;;;;;;;12.60;7.00;;;;;;;;;;5024961;28;21295;-75
2022/01/12 11:01:45;;;;;;;16.17;7.82;;;;;;;;;;5024106;28;20659;-76
2022/01/12 11:04:12;;;;;;;23.55;8.27;;;;;;;;;;5032696;28;20192;-75
2022/01/12 11:06:40;;;;;;;17.80;8.02;;;;;;;;;;5025098;28;20193;-77
2022/01/12 11:09:07;;;;;;;16.50;8.50;;;;;;;;;;5028911;28;20654;-77
2022/01/12 11:11:35;;;;;;;20.15;10.05;;;;;;;;;;5024279;28;20306;-77
2022/01/12 11:14:03;;;;;;;22.58;10.73;;;;;;;;;;5027727;28;20208;-77
2022/01/12 11:16:30;;;;;;;23.70;10.80;;;;;;;;;;5017855;28;20211;-76
2022/01/12 11:18:59;;;;;;;13.90;8.15;;;;;;;;;;5029066;28;20223;-77
2022/01/12 11:21:29;;;;;;;16.45;8.95;;;;;;;;;;5032236;28;20202;-77
2022/01/12 11:23:58;;;;;;;16.02;8.80;;;;;;;;;;5028137;28;20654;-76
2022/01/12 11:26:26;;;;;;;17.00;9.52;;;;;;;;;;5030865;28;20234;-76
2022/01/12 11:28:55;;;;;;;17.08;10.27;;;;;;;;;;5032057;28;20192;-76
2022/01/12 11:31:26;;;;;;;16.02;9.20;;;;;;;;;;5032590;28;20202;-76
2022/01/12 11:33:53;;;;;;;16.80;9.63;;;;;;;;;;5030612;28;20191;-76
2022/01/12 11:36:22;;;;;;;18.50;9.95;;;;;;;;;;5025521;28;20195;-76
2022/01/12 11:38:52;;;;;;;20.75;11.30;;;;;;;;;;5029717;28;20297;-76
2022/01/12 11:41:24;;;;;;;15.68;8.77;;;;;;;;;;5032388;28;20558;-77
2022/01/12 11:43:52;;;;;;;19.70;10.55;;;;;;;;;;5024250;28;20207;-77
2022/01/12 11:46:21;;;;;;;23.10;10.52;;;;;;;;;;5024357;28;20203;-77
2022/01/12 11:48:49;;;;;;;18.92;11.65;;;;;;;;;;5023008;28;20211;-77
2022/01/12 11:51:17;;;;;;;23.45;12.30;;;;;;;;;;5027745;28;20211;-77
2022/01/12 11:53:45;;;;;;;25.65;12.02;;;;;;;;;;5024650;28;20204;-77
2022/01/12 11:56:13;;;;;;;25.45;11.07;;;;;;;;;;5025813;28;20206;-77
2022/01/12 11:58:50;;;;;;;20.45;11.82;;;;;;;;;;5024415;28;20390;-77
2022/01/12 12:01:18;;;;;;;19.17;10.43;;;;;;;;;;5025420;28;20203;-76
2022/01/12 12:03:57;;;;;;;19.30;10.55;;;;;;;;;;5023371;28;20197;-77
2022/01/12 12:06:24;;;;;;;16.95;10.43;;;;;;;;;;5027460;28;20666;-77
2022/01/12 12:08:59;;;;;;;27.67;12.13;;;;;;;;;;5026439;28;20206;-78
2022/01/12 12:11:28;;;;;;;21.67;10.77;;;;;;;;;;5026223;28;20588;-76
2022/01/12 12:13:55;;;;;;;21.05;12.73;;;;;;;;;;5029869;28;20261;-76
2022/01/12 12:16:22;;;;;;;22.02;11.82;;;;;;;;;;5026141;28;20228;-76
2022/01/12 12:18:49;;;;;;;23.23;11.05;;;;;;;;;;5025776;28;20223;-76
2022/01/12 12:21:18;;;;;;;26.42;12.68;;;;;;;;;;5020538;28;20203;-77
2022/01/12 12:23:46;;;;;;;21.45;10.75;;;;;;;;;;5017850;28;20512;-77
2022/01/12 12:26:14;;;;;;;21.05;11.88;;;;;;;;;;5022266;28;20697;-76
2022/01/12 12:28:44;;;;;;;24.95;10.60;;;;;;;;;;5027141;28;20613;-76
2022/01/12 12:31:11;;;;;;;21.75;11.32;;;;;;;;;;5020635;28;20301;-77
2022/01/12 12:33:38;;;;;;;17.90;10.68;;;;;;;;;;5021962;28;20196;-78
2022/01/12 12:36:06;;;;;;;21.85;11.90;;;;;;;;;;5019212;28;20192;-75
2022/01/12 12:38:35;;;;;;;17.05;9.52;;;;;;;;;;5017007;28;20224;-75
2022/01/12 12:41:02;;;;;;;17.38;10.98;;;;;;;;;;5020018;28;20207;-75
2022/01/12 12:43:34;;;;;;;21.83;11.63;;;;;;;;;;5022252;28;20211;-76
2022/01/12 12:46:05;;;;;;;20.10;10.27;;;;;;;;;;5020723;28;20198;-76
2022/01/12 12:48:35;;;;;;;15.85;8.38;;;;;;;;;;5024660;28;20534;-76
2022/01/12 12:51:04;;;;;;;24.73;10.63;;;;;;;;;;5029940;28;20211;-76
2022/01/12 12:53:32;;;;;;;17.13;10.05;;;;;;;;;;5021995;28;20200;-76
2022/01/12 12:56:01;;;;;;;14.43;9.18;;;;;;;;;;5028518;28;20195;-75
2022/01/12 12:58:28;;;;;;;15.07;10.13;;;;;;;;;;5024796;28;20216;-76
2022/01/12 13:01:05;;;;;;;15.05;9.40;;;;;;;;;;5023665;28;20215;-77
2022/01/12 13:03:32;;;;;;;15.27;8.85;;;;;;;;;;5021934;28;20658;-77
2022/01/12 13:05:59;;;;;;;15.98;10.13;;;;;;;;;;5027574;28;20195;-76
2022/01/12 13:08:26;;;;;;;17.77;8.63;;;;;;;;;;5026501;28;20197;-76
2022/01/12 13:10:53;;;;;;;18.85;9.85;;;;;;;;;;5025156;28;20658;-76
2022/01/12 13:13:21;;;;;;;15.35;8.32;;;;;;;;;;5027673;28;20200;-76
2022/01/12 13:15:49;;;;;;;13.52;8.27;;;;;;;;;;5031328;28;20206;-76
2022/01/12 13:18:19;;;;;;;15.02;8.52;;;;;;;;;;5024736;28;20222;-75
2022/01/12 13:23:33;;;;;;;23.25;9.50;;;;;;;;;;5026809;28;20295;-75
2022/01/12 13:26:04;;;;;;;22.25;10.85;;;;;;;;;;5023546;28;20205;-77
2022/01/12 13:28:33;;;;;;;20.95;12.15;;;;;;;;;;5023885;28;20191;-76
2022/01/12 13:31:01;;;;;;;21.88;11.82;;;;;;;;;;5025585;28;20674;-77
2022/01/12 13:33:30;;;;;;;21.90;11.70;;;;;;;;;;5025175;28;20200;-76
2022/01/12 13:35:58;;;;;;;15.18;10.10;;;;;;;;;;5027200;28;20200;-77
2022/01/12 13:38:27;;;;;;;21.35;9.95;;;;;;;;;;5023096;28;20951;-76
2022/01/12 13:40:55;;;;;;;10.63;7.60;;;;;;;;;;5023946;28;20273;-77
2022/01/12 13:43:22;;;;;;;20.98;10.77;;;;;;;;;;5024687;28;20233;-77
2022/01/12 13:46:00;;;;;;;11.98;8.32;;;;;;;;;;5022524;28;20287;-77
2022/01/12 13:48:30;;;;;;;17.20;10.27;;;;;;;;;;5022907;28;20200;-76
2022/01/12 13:50:59;;;;;;;18.38;10.75;;;;;;;;;;5026958;28;20286;-75
2022/01/12 13:53:32;;;;;;;15.40;9.13;;;;;;;;;;5024642;28;20204;-75
2022/01/12 13:55:59;;;;;;;17.20;9.35;;;;;;;;;;5020132;28;20547;-75
2022/01/12 13:58:27;;;;;;;14.38;7.75;;;;;;;;;;5027542;28;20245;-75
2022/01/12 14:01:01;;;;;;;16.67;10.00;;;;;;;;;;5026091;28;20203;-75
2022/01/12 14:03:28;;;;;;;18.63;9.18;;;;;;;;;;5026172;28;20222;-76
2022/01/12 14:05:59;;;;;;;18.17;9.52;;;;;;;;;;5027387;28;20569;-76
2022/01/12 14:08:39;;;;;;;20.17;10.95;;;;;;;;;;5008706;28;20203;-77
2022/01/12 14:11:06;;;;;;;19.00;10.43;;;;;;;;;;5023590;28;20199;-78
2022/01/12 14:13:40;;;;;;;16.95;10.40;;;;;;;;;;5024495;28;20199;-76
2022/01/12 14:16:09;;;;;;;16.55;10.05;;;;;;;;;;5020648;28;20265;-77
2022/01/12 14:18:36;;;;;;;20.23;11.13;;;;;;;;;;5021531;28;20224;-76
2022/01/12 14:21:13;;;;;;;13.38;9.82;;;;;;;;;;5019076;28;20207;-76
2022/01/12 14:23:40;;;;;;;19.10;11.70;;;;;;;;;;5018663;28;20199;-76
2022/01/12 14:26:08;;;;;;;18.67;9.13;;;;;;;;;;5027700;28;20200;-76
2022/01/12 14:28:36;;;;;;;22.98;11.65;;;;;;;;;;5028810;28;20190;-77
2022/01/12 14:31:03;;;;;;;17.75;9.70;;;;;;;;;;5024189;28;20195;-78
2022/01/12 14:33:31;;;;;;;16.80;10.63;;;;;;;;;;5020651;28;20203;-77
2022/01/12 14:35:58;;;;;;;22.85;10.85;;;;;;;;;;5010658;28;20220;-75
2022/01/12 14:38:26;;;;;;;18.00;9.82;;;;;;;;;;5021721;28;20231;-76
2022/01/12 14:40:53;;;;;;;17.42;9.93;;;;;;;;;;5021614;28;20701;-76
2022/01/12 14:43:25;;;;;;;15.45;9.75;;;;;;;;;;5010686;28;20637;-76
2022/01/12 14:45:52;;;;;;;14.88;10.70;;;;;;;;;;5023182;28;20191;-76
2022/01/12 14:48:22;;;;;;;18.70;9.88;;;;;;;;;;5021854;28;20212;-76
2022/01/12 14:50:51;;;;;;;21.48;11.07;;;;;;;;;;5023734;28;20234;-75
2022/01/12 14:53:21;;;;;;;20.33;9.50;;;;;;;;;;5025766;28;20207;-77
2022/01/12 14:55:48;;;;;;;18.98;10.38;;;;;;;;;;5022326;28;20226;-77
2022/01/12 14:58:15;;;;;;;13.40;9.23;;;;;;;;;;5024092;28;20222;-77
2022/01/12 15:00:42;;;;;;;17.25;9.70;;;;;;;;;;5024414;28;20192;-76
2022/01/12 15:03:10;;;;;;;15.32;9.18;;;;;;;;;;5028856;28;20650;-77
2022/01/12 15:05:37;;;;;;;15.00;9.00;;;;;;;;;;5022716;28;20192;-77
2022/01/12 15:08:06;;;;;;;18.75;10.55;;;;;;;;;;5023398;28;20196;-77
2022/01/12 15:10:34;;;;;;;13.65;9.27;;;;;;;;;;5024327;28;20562;-77
2022/01/12 15:13:13;;;;;;;15.55;8.90;;;;;;;;;;5027097;28;20430;-76
2022/01/12 15:15:40;;;;;;;12.63;9.73;;;;;;;;;;5030024;28;20606;-77
2022/01/12 15:18:07;;;;;;;20.33;10.18;;;;;;;;;;5026204;28;20238;-77
2022/01/12 15:20:34;;;;;;;13.30;8.38;;;;;;;;;;5029727;28;20192;-76
2022/01/12 15:23:01;;;;;;;12.90;8.82;;;;;;;;;;5032500;28;20203;-77
2022/01/12 15:25:30;;;;;;;14.05;8.25;;;;;;;;;;5024939;28;20195;-76
2022/01/12 15:27:57;;;;;;;13.88;8.27;;;;;;;;;;5033669;28;20196;-77
2022/01/12 15:30:24;;;;;;;13.35;7.35;;;;;;;;;;5034102;28;20203;-77
2022/01/12 15:32:53;;;;;;;11.63;8.23;;;;;;;;;;5029797;28;20223;-76
2022/01/12 15:35:21;;;;;;;16.30;8.48;;;;;;;;;;5034025;28;20204;-77
2022/01/12 15:37:48;;;;;;;10.90;6.88;;;;;;;;;;5034059;28;20207;-76
2022/01/12 15:40:15;;;;;;;16.60;7.18;;;;;;;;;;5022051;28;20224;-76
2022/01/12 15:42:44;;;;;;;10.90;7.35;;;;;;;;;;5018808;28;20199;-75
2022/01/12 15:45:11;;;;;;;11.57;6.32;;;;;;;;;;5029078;28;20208;-75
2022/01/12 15:47:38;;;;;;;12.20;7.57;;;;;;;;;;5023204;28;20195;-76
2022/01/12 15:50:06;;;;;;;15.10;8.88;;;;;;;;;;5031103;28;20206;-76
2022/01/12 15:52:33;;;;;;;15.27;8.13;;;;;;;;;;5033458;28;20206;-76
2022/01/12 15:55:00;;;;;;;19.25;8.45;;;;;;;;;;5033362;28;20199;-77